sensor_id;sensor_type;location;lat;lon;timestamp;P1;durP1;ratioP1;P2;durP2;ratioP2
69305;SDS011;56427;51.580;4.656;2022-11-06T00:02:15;10.07;;;3.63;;
69305;SDS011;56427;51.580;4.656;2022-11-06T00:04:40;13.03;;;3.83;;
69305;SDS011;56427;51.580;4.656;2022-11-06T00:07:06;11.70;;;4.10;;
69305;SDS011;56427;51.580;4.656;2022-11-06T00:09:31;10.63;;;4.03;;
69305;SDS011;56427;51.580;4.656;2022-11-06T00:11:58;12.05;;;4.35;;
69305;SDS011;56427;51.580;4.656;2022-11-06T00:14:23;11.93;;;4.20;;
69305;SDS011;56427;51.580;4.656;2022-11-06T00:16:48;7.50;;;3.80;;
69305;SDS011;56427;51.580;4.656;2022-11-06T00:19:14;12.37;;;4.17;;
69305;SDS011;56427;51.580;4.656;2022-11-06T00:21:40;10.38;;;3.90;;
69305;SDS011;56427;51.580;4.656;2022-11-06T00:24:06;11.82;;;3.78;;
69305;SDS011;56427;51.580;4.656;2022-11-06T00:26:33;8.77;;;3.83;;
69305;SDS011;56427;51.580;4.656;2022-11-06T00:28:59;8.02;;;3.65;;
69305;SDS011;56427;51.580;4.656;2022-11-06T00:31:26;16.47;;;4.30;;
69305;SDS011;56427;51.580;4.656;2022-11-06T00:33:54;7.00;;;3.50;;
69305;SDS011;56427;51.580;4.656;2022-11-06T00:36:21;11.93;;;3.80;;
69305;SDS011;56427;51.580;4.656;2022-11-06T00:38:50;10.35;;;4.10;;
69305;SDS011;56427;51.580;4.656;2022-11-06T00:41:16;10.95;;;3.22;;
69305;SDS011;56427;51.580;4.656;2022-11-06T00:43:46;10.53;;;3.70;;
69305;SDS011;56427;51.580;4.656;2022-11-06T00:46:13;8.20;;;3.67;;
69305;SDS011;56427;51.580;4.656;2022-11-06T00:48:39;10.85;;;3.40;;
69305;SDS011;56427;51.580;4.656;2022-11-06T00:51:09;7.97;;;3.10;;
69305;SDS011;56427;51.580;4.656;2022-11-06T00:53:37;9.03;;;3.40;;
69305;SDS011;56427;51.580;4.656;2022-11-06T00:56:06;9.75;;;3.20;;
69305;SDS011;56427;51.580;4.656;2022-11-06T00:58:36;12.13;;;3.38;;
69305;SDS011;56427;51.580;4.656;2022-11-06T01:01:06;8.98;;;3.15;;
69305;SDS011;56427;51.580;4.656;2022-11-06T01:03:33;14.20;;;3.60;;
69305;SDS011;56427;51.580;4.656;2022-11-06T01:06:06;9.37;;;2.97;;
69305;SDS011;56427;51.580;4.656;2022-11-06T01:08:32;9.07;;;3.33;;
69305;SDS011;56427;51.580;4.656;2022-11-06T01:11:03;10.68;;;3.10;;
69305;SDS011;56427;51.580;4.656;2022-11-06T01:13:31;6.80;;;2.85;;
69305;SDS011;56427;51.580;4.656;2022-11-06T01:15:57;8.07;;;3.20;;
69305;SDS011;56427;51.580;4.656;2022-11-06T01:18:22;8.32;;;2.67;;
69305;SDS011;56427;51.580;4.656;2022-11-06T01:20:48;10.17;;;3.00;;
69305;SDS011;56427;51.580;4.656;2022-11-06T01:23:13;10.27;;;3.13;;
69305;SDS011;56427;51.580;4.656;2022-11-06T01:25:38;11.03;;;2.80;;
69305;SDS011;56427;51.580;4.656;2022-11-06T01:28:03;12.70;;;3.53;;
69305;SDS011;56427;51.580;4.656;2022-11-06T01:30:30;11.57;;;3.00;;
69305;SDS011;56427;51.580;4.656;2022-11-06T01:32:55;12.40;;;2.90;;
69305;SDS011;56427;51.580;4.656;2022-11-06T01:35:23;12.90;;;3.40;;
69305;SDS011;56427;51.580;4.656;2022-11-06T01:37:48;11.02;;;2.88;;
69305;SDS011;56427;51.580;4.656;2022-11-06T01:40:14;6.03;;;2.63;;
69305;SDS011;56427;51.580;4.656;2022-11-06T01:42:40;10.53;;;3.20;;
69305;SDS011;56427;51.580;4.656;2022-11-06T01:45:19;9.57;;;3.53;;
69305;SDS011;56427;51.580;4.656;2022-11-06T01:47:49;8.82;;;2.85;;
69305;SDS011;56427;51.580;4.656;2022-11-06T01:50:15;11.02;;;3.08;;
69305;SDS011;56427;51.580;4.656;2022-11-06T01:52:41;10.45;;;3.05;;
69305;SDS011;56427;51.580;4.656;2022-11-06T01:55:13;13.55;;;3.63;;
69305;SDS011;56427;51.580;4.656;2022-11-06T01:57:43;9.30;;;2.90;;
69305;SDS011;56427;51.580;4.656;2022-11-06T02:00:10;11.02;;;2.95;;
69305;SDS011;56427;51.580;4.656;2022-11-06T02:02:36;14.63;;;3.22;;
69305;SDS011;56427;51.580;4.656;2022-11-06T02:05:03;9.55;;;2.78;;
69305;SDS011;56427;51.580;4.656;2022-11-06T02:07:29;9.10;;;2.97;;
69305;SDS011;56427;51.580;4.656;2022-11-06T02:09:56;10.43;;;3.17;;
69305;SDS011;56427;51.580;4.656;2022-11-06T02:18:20;8.65;;;2.95;;
69305;SDS011;56427;51.580;4.656;2022-11-06T02:24:35;9.40;;;2.80;;
69305;SDS011;56427;51.580;4.656;2022-11-06T02:26:59;8.85;;;2.80;;
69305;SDS011;56427;51.580;4.656;2022-11-06T02:29:34;7.53;;;2.97;;
69305;SDS011;56427;51.580;4.656;2022-11-06T02:32:06;7.72;;;2.90;;
69305;SDS011;56427;51.580;4.656;2022-11-06T02:34:36;10.15;;;2.88;;
69305;SDS011;56427;51.580;4.656;2022-11-06T02:37:06;9.43;;;2.63;;
69305;SDS011;56427;51.580;4.656;2022-11-06T02:39:38;9.93;;;2.75;;
69305;SDS011;56427;51.580;4.656;2022-11-06T02:42:06;7.72;;;3.08;;
69305;SDS011;56427;51.580;4.656;2022-11-06T02:44:35;9.95;;;2.97;;
69305;SDS011;56427;51.580;4.656;2022-11-06T02:47:09;8.88;;;3.20;;
69305;SDS011;56427;51.580;4.656;2022-11-06T02:49:52;15.07;;;2.75;;
69305;SDS011;56427;51.580;4.656;2022-11-06T02:52:26;13.65;;;3.45;;
69305;SDS011;56427;51.580;4.656;2022-11-06T02:55:11;9.88;;;3.50;;
69305;SDS011;56427;51.580;4.656;2022-11-06T02:57:38;8.32;;;2.70;;
69305;SDS011;56427;51.580;4.656;2022-11-06T03:00:11;11.07;;;3.23;;
69305;SDS011;56427;51.580;4.656;2022-11-06T03:02:46;8.32;;;2.92;;
69305;SDS011;56427;51.580;4.656;2022-11-06T03:05:52;8.85;;;3.25;;
69305;SDS011;56427;51.580;4.656;2022-11-06T03:08:12;11.60;;;3.00;;
69305;SDS011;56427;51.580;4.656;2022-11-06T03:10:44;11.43;;;3.33;;
69305;SDS011;56427;51.580;4.656;2022-11-06T03:13:19;10.83;;;3.23;;
69305;SDS011;56427;51.580;4.656;2022-11-06T03:15:59;9.55;;;3.10;;
69305;SDS011;56427;51.580;4.656;2022-11-06T03:21:23;10.10;;;2.85;;
69305;SDS011;56427;51.580;4.656;2022-11-06T03:23:57;10.10;;;3.17;;
69305;SDS011;56427;51.580;4.656;2022-11-06T03:26:38;12.03;;;2.67;;
69305;SDS011;56427;51.580;4.656;2022-11-06T03:32:07;9.30;;;3.20;;
69305;SDS011;56427;51.580;4.656;2022-11-06T03:34:41;11.15;;;3.10;;
69305;SDS011;56427;51.580;4.656;2022-11-06T03:37:23;8.65;;;2.63;;
69305;SDS011;56427;51.580;4.656;2022-11-06T03:39:54;8.70;;;2.80;;
69305;SDS011;56427;51.580;4.656;2022-11-06T03:42:24;8.57;;;2.55;;
69305;SDS011;56427;51.580;4.656;2022-11-06T03:44:56;7.22;;;2.70;;
69305;SDS011;56427;51.580;4.656;2022-11-06T03:47:34;6.28;;;2.75;;
69305;SDS011;56427;51.580;4.656;2022-11-06T03:55:33;10.07;;;2.80;;
69305;SDS011;56427;51.580;4.656;2022-11-06T03:58:16;7.53;;;2.75;;
69305;SDS011;56427;51.580;4.656;2022-11-06T04:00:45;8.52;;;2.42;;
69305;SDS011;56427;51.580;4.656;2022-11-06T04:03:17;10.23;;;2.58;;
69305;SDS011;56427;51.580;4.656;2022-11-06T04:05:56;9.87;;;2.53;;
69305;SDS011;56427;51.580;4.656;2022-11-06T04:08:26;8.80;;;2.40;;
69305;SDS011;56427;51.580;4.656;2022-11-06T04:11:14;7.55;;;2.53;;
69305;SDS011;56427;51.580;4.656;2022-11-06T04:14:03;5.22;;;2.30;;
69305;SDS011;56427;51.580;4.656;2022-11-06T04:16:34;6.55;;;2.47;;
69305;SDS011;56427;51.580;4.656;2022-11-06T04:19:05;5.23;;;2.37;;
69305;SDS011;56427;51.580;4.656;2022-11-06T04:24:35;9.27;;;2.00;;
69305;SDS011;56427;51.580;4.656;2022-11-06T04:30:31;8.93;;;2.33;;
69305;SDS011;56427;51.580;4.656;2022-11-06T04:35:53;7.68;;;2.17;;
69305;SDS011;56427;51.580;4.656;2022-11-06T04:41:28;6.15;;;2.20;;
69305;SDS011;56427;51.580;4.656;2022-11-06T04:47:19;9.90;;;2.67;;
69305;SDS011;56427;51.580;4.656;2022-11-06T04:49:47;8.00;;;2.38;;
69305;SDS011;56427;51.580;4.656;2022-11-06T04:52:17;5.18;;;2.22;;
69305;SDS011;56427;51.580;4.656;2022-11-06T04:54:46;10.50;;;2.38;;
69305;SDS011;56427;51.580;4.656;2022-11-06T04:57:12;8.27;;;2.27;;
69305;SDS011;56427;51.580;4.656;2022-11-06T04:59:37;9.07;;;2.70;;
69305;SDS011;56427;51.580;4.656;2022-11-06T05:02:03;8.47;;;2.20;;
69305;SDS011;56427;51.580;4.656;2022-11-06T05:04:29;7.63;;;2.20;;
69305;SDS011;56427;51.580;4.656;2022-11-06T05:06:55;9.00;;;2.20;;
69305;SDS011;56427;51.580;4.656;2022-11-06T05:09:21;10.10;;;2.45;;
69305;SDS011;56427;51.580;4.656;2022-11-06T05:11:46;8.73;;;2.20;;
69305;SDS011;56427;51.580;4.656;2022-11-06T05:14:12;9.77;;;2.37;;
69305;SDS011;56427;51.580;4.656;2022-11-06T05:16:37;9.00;;;2.37;;
69305;SDS011;56427;51.580;4.656;2022-11-06T05:19:02;6.67;;;2.40;;
69305;SDS011;56427;51.580;4.656;2022-11-06T05:21:28;10.15;;;2.55;;
69305;SDS011;56427;51.580;4.656;2022-11-06T05:24:12;11.82;;;2.75;;
69305;SDS011;56427;51.580;4.656;2022-11-06T05:26:37;7.77;;;2.50;;
69305;SDS011;56427;51.580;4.656;2022-11-06T05:29:03;7.00;;;2.23;;
69305;SDS011;56427;51.580;4.656;2022-11-06T05:31:28;8.30;;;2.27;;
69305;SDS011;56427;51.580;4.656;2022-11-06T05:33:53;5.77;;;2.10;;
69305;SDS011;56427;51.580;4.656;2022-11-06T05:36:19;6.30;;;2.57;;
69305;SDS011;56427;51.580;4.656;2022-11-06T05:38:44;9.10;;;2.50;;
69305;SDS011;56427;51.580;4.656;2022-11-06T05:41:09;9.70;;;2.27;;
69305;SDS011;56427;51.580;4.656;2022-11-06T05:43:35;10.47;;;2.23;;
69305;SDS011;56427;51.580;4.656;2022-11-06T05:46:00;6.75;;;2.05;;
69305;SDS011;56427;51.580;4.656;2022-11-06T05:48:26;8.43;;;2.30;;
69305;SDS011;56427;51.580;4.656;2022-11-06T05:50:52;9.45;;;2.53;;
69305;SDS011;56427;51.580;4.656;2022-11-06T05:53:17;8.50;;;2.40;;
69305;SDS011;56427;51.580;4.656;2022-11-06T05:55:46;10.30;;;2.30;;
69305;SDS011;56427;51.580;4.656;2022-11-06T05:58:11;15.18;;;2.75;;
69305;SDS011;56427;51.580;4.656;2022-11-06T06:00:37;12.77;;;2.97;;
69305;SDS011;56427;51.580;4.656;2022-11-06T06:03:03;9.60;;;2.50;;
69305;SDS011;56427;51.580;4.656;2022-11-06T06:05:28;7.57;;;2.30;;
69305;SDS011;56427;51.580;4.656;2022-11-06T06:07:53;5.77;;;2.30;;
69305;SDS011;56427;51.580;4.656;2022-11-06T06:10:18;5.50;;;2.10;;
69305;SDS011;56427;51.580;4.656;2022-11-06T06:12:44;7.27;;;2.40;;
69305;SDS011;56427;51.580;4.656;2022-11-06T06:15:09;7.93;;;2.60;;
69305;SDS011;56427;51.580;4.656;2022-11-06T06:17:35;10.50;;;2.67;;
69305;SDS011;56427;51.580;4.656;2022-11-06T06:20:00;7.40;;;2.43;;
69305;SDS011;56427;51.580;4.656;2022-11-06T06:22:25;6.40;;;2.10;;
69305;SDS011;56427;51.580;4.656;2022-11-06T06:24:51;7.57;;;2.40;;
69305;SDS011;56427;51.580;4.656;2022-11-06T06:27:16;15.67;;;2.47;;
69305;SDS011;56427;51.580;4.656;2022-11-06T06:29:41;11.43;;;3.13;;
69305;SDS011;56427;51.580;4.656;2022-11-06T06:32:07;7.50;;;2.43;;
69305;SDS011;56427;51.580;4.656;2022-11-06T06:34:32;9.07;;;2.60;;
69305;SDS011;56427;51.580;4.656;2022-11-06T06:36:57;12.10;;;2.37;;
69305;SDS011;56427;51.580;4.656;2022-11-06T06:39:22;6.73;;;2.20;;
69305;SDS011;56427;51.580;4.656;2022-11-06T06:41:48;11.50;;;2.60;;
69305;SDS011;56427;51.580;4.656;2022-11-06T06:44:13;6.63;;;2.30;;
69305;SDS011;56427;51.580;4.656;2022-11-06T06:46:39;8.40;;;2.70;;
69305;SDS011;56427;51.580;4.656;2022-11-06T06:49:04;7.97;;;2.40;;
69305;SDS011;56427;51.580;4.656;2022-11-06T06:51:30;11.70;;;2.30;;
69305;SDS011;56427;51.580;4.656;2022-11-06T06:53:55;8.57;;;2.70;;
69305;SDS011;56427;51.580;4.656;2022-11-06T06:56:20;9.10;;;2.80;;
69305;SDS011;56427;51.580;4.656;2022-11-06T06:58:46;10.55;;;3.00;;
69305;SDS011;56427;51.580;4.656;2022-11-06T07:01:11;8.10;;;2.53;;
69305;SDS011;56427;51.580;4.656;2022-11-06T07:03:37;7.33;;;2.30;;
69305;SDS011;56427;51.580;4.656;2022-11-06T07:06:03;8.23;;;2.55;;
69305;SDS011;56427;51.580;4.656;2022-11-06T07:08:29;10.67;;;2.73;;
69305;SDS011;56427;51.580;4.656;2022-11-06T07:11:01;12.77;;;2.47;;
69305;SDS011;56427;51.580;4.656;2022-11-06T07:13:28;7.18;;;2.20;;
69305;SDS011;56427;51.580;4.656;2022-11-06T07:15:53;11.17;;;2.40;;
69305;SDS011;56427;51.580;4.656;2022-11-06T07:18:19;8.33;;;2.63;;
69305;SDS011;56427;51.580;4.656;2022-11-06T07:20:44;5.83;;;2.30;;
69305;SDS011;56427;51.580;4.656;2022-11-06T07:23:09;7.60;;;2.10;;
69305;SDS011;56427;51.580;4.656;2022-11-06T07:25:35;6.23;;;1.90;;
69305;SDS011;56427;51.580;4.656;2022-11-06T07:28:01;9.48;;;2.33;;
69305;SDS011;56427;51.580;4.656;2022-11-06T07:30:27;11.00;;;2.58;;
69305;SDS011;56427;51.580;4.656;2022-11-06T07:32:53;7.73;;;2.17;;
69305;SDS011;56427;51.580;4.656;2022-11-06T07:35:18;9.93;;;3.07;;
69305;SDS011;56427;51.580;4.656;2022-11-06T07:37:43;7.83;;;2.93;;
69305;SDS011;56427;51.580;4.656;2022-11-06T07:40:09;10.13;;;2.77;;
69305;SDS011;56427;51.580;4.656;2022-11-06T07:42:34;5.90;;;2.30;;
69305;SDS011;56427;51.580;4.656;2022-11-06T07:45:00;12.00;;;3.30;;
69305;SDS011;56427;51.580;4.656;2022-11-06T07:47:25;8.20;;;2.07;;
69305;SDS011;56427;51.580;4.656;2022-11-06T07:49:51;6.28;;;2.10;;
69305;SDS011;56427;51.580;4.656;2022-11-06T07:52:17;6.90;;;2.53;;
69305;SDS011;56427;51.580;4.656;2022-11-06T07:54:42;6.77;;;1.90;;
69305;SDS011;56427;51.580;4.656;2022-11-06T07:57:07;7.43;;;2.50;;
69305;SDS011;56427;51.580;4.656;2022-11-06T07:59:32;6.10;;;2.30;;
69305;SDS011;56427;51.580;4.656;2022-11-06T08:01:58;9.57;;;2.30;;
69305;SDS011;56427;51.580;4.656;2022-11-06T08:04:23;8.10;;;2.10;;
69305;SDS011;56427;51.580;4.656;2022-11-06T08:06:48;6.90;;;2.20;;
69305;SDS011;56427;51.580;4.656;2022-11-06T08:09:14;5.77;;;1.90;;
69305;SDS011;56427;51.580;4.656;2022-11-06T08:11:39;7.87;;;2.20;;
69305;SDS011;56427;51.580;4.656;2022-11-06T08:14:04;8.07;;;2.40;;
69305;SDS011;56427;51.580;4.656;2022-11-06T08:16:29;5.80;;;2.10;;
69305;SDS011;56427;51.580;4.656;2022-11-06T08:18:55;11.30;;;2.20;;
69305;SDS011;56427;51.580;4.656;2022-11-06T08:21:20;9.80;;;2.30;;
69305;SDS011;56427;51.580;4.656;2022-11-06T08:23:45;5.20;;;1.83;;
69305;SDS011;56427;51.580;4.656;2022-11-06T08:26:11;6.40;;;1.77;;
69305;SDS011;56427;51.580;4.656;2022-11-06T08:28:36;7.77;;;1.80;;
69305;SDS011;56427;51.580;4.656;2022-11-06T08:31:03;7.07;;;2.22;;
69305;SDS011;56427;51.580;4.656;2022-11-06T08:33:32;7.47;;;2.43;;
69305;SDS011;56427;51.580;4.656;2022-11-06T08:36:02;7.28;;;1.83;;
69305;SDS011;56427;51.580;4.656;2022-11-06T08:38:28;8.90;;;2.15;;
69305;SDS011;56427;51.580;4.656;2022-11-06T08:40:53;6.10;;;1.70;;
69305;SDS011;56427;51.580;4.656;2022-11-06T08:43:19;8.07;;;2.50;;
69305;SDS011;56427;51.580;4.656;2022-11-06T08:45:44;5.50;;;1.80;;
69305;SDS011;56427;51.580;4.656;2022-11-06T08:48:09;8.83;;;2.10;;
69305;SDS011;56427;51.580;4.656;2022-11-06T08:50:36;8.07;;;1.60;;
69305;SDS011;56427;51.580;4.656;2022-11-06T08:53:03;6.32;;;1.70;;
69305;SDS011;56427;51.580;4.656;2022-11-06T08:55:30;7.00;;;1.90;;
69305;SDS011;56427;51.580;4.656;2022-11-06T08:57:56;7.30;;;1.80;;
69305;SDS011;56427;51.580;4.656;2022-11-06T09:00:21;7.90;;;1.87;;
69305;SDS011;56427;51.580;4.656;2022-11-06T09:02:47;5.20;;;1.90;;
69305;SDS011;56427;51.580;4.656;2022-11-06T09:05:12;5.40;;;1.93;;
69305;SDS011;56427;51.580;4.656;2022-11-06T09:07:37;5.77;;;1.60;;
69305;SDS011;56427;51.580;4.656;2022-11-06T09:10:03;6.40;;;2.00;;
69305;SDS011;56427;51.580;4.656;2022-11-06T09:12:28;6.90;;;1.85;;
69305;SDS011;56427;51.580;4.656;2022-11-06T09:14:53;5.90;;;1.67;;
69305;SDS011;56427;51.580;4.656;2022-11-06T09:17:19;11.77;;;1.87;;
69305;SDS011;56427;51.580;4.656;2022-11-06T09:19:48;6.20;;;1.52;;
69305;SDS011;56427;51.580;4.656;2022-11-06T09:22:16;6.00;;;1.60;;
69305;SDS011;56427;51.580;4.656;2022-11-06T09:24:42;7.90;;;1.97;;
69305;SDS011;56427;51.580;4.656;2022-11-06T09:27:07;7.47;;;1.65;;
69305;SDS011;56427;51.580;4.656;2022-11-06T09:29:33;5.80;;;1.30;;
69305;SDS011;56427;51.580;4.656;2022-11-06T09:31:58;6.93;;;1.97;;
69305;SDS011;56427;51.580;4.656;2022-11-06T09:34:23;5.60;;;1.57;;
69305;SDS011;56427;51.580;4.656;2022-11-06T09:36:49;3.63;;;1.40;;
69305;SDS011;56427;51.580;4.656;2022-11-06T09:39:14;8.57;;;1.50;;
69305;SDS011;56427;51.580;4.656;2022-11-06T09:44:48;6.15;;;1.35;;
69305;SDS011;56427;51.580;4.656;2022-11-06T09:47:33;5.75;;;1.50;;
69305;SDS011;56427;51.580;4.656;2022-11-06T09:50:01;5.28;;;1.65;;
69305;SDS011;56427;51.580;4.656;2022-11-06T09:52:32;7.95;;;1.98;;
69305;SDS011;56427;51.580;4.656;2022-11-06T09:55:46;4.97;;;1.63;;
69305;SDS011;56427;51.580;4.656;2022-11-06T09:57:56;4.65;;;1.58;;
69305;SDS011;56427;51.580;4.656;2022-11-06T10:00:25;6.65;;;1.70;;
69305;SDS011;56427;51.580;4.656;2022-11-06T10:02:51;6.33;;;1.73;;
69305;SDS011;56427;51.580;4.656;2022-11-06T10:05:26;6.47;;;1.55;;
69305;SDS011;56427;51.580;4.656;2022-11-06T10:07:58;9.93;;;1.50;;
69305;SDS011;56427;51.580;4.656;2022-11-06T10:10:45;8.60;;;1.80;;
69305;SDS011;56427;51.580;4.656;2022-11-06T10:21:50;5.57;;;1.50;;
69305;SDS011;56427;51.580;4.656;2022-11-06T10:24:31;5.72;;;1.27;;
69305;SDS011;56427;51.580;4.656;2022-11-06T10:27:00;6.40;;;1.97;;
69305;SDS011;56427;51.580;4.656;2022-11-06T10:29:48;5.85;;;1.50;;
69305;SDS011;56427;51.580;4.656;2022-11-06T10:32:28;5.25;;;1.50;;
69305;SDS011;56427;51.580;4.656;2022-11-06T10:37:28;6.43;;;1.40;;
69305;SDS011;56427;51.580;4.656;2022-11-06T10:39:56;4.70;;;1.30;;
69305;SDS011;56427;51.580;4.656;2022-11-06T10:42:45;6.88;;;1.40;;
69305;SDS011;56427;51.580;4.656;2022-11-06T10:47:52;5.20;;;1.60;;
69305;SDS011;56427;51.580;4.656;2022-11-06T10:50:20;4.97;;;1.20;;
69305;SDS011;56427;51.580;4.656;2022-11-06T10:58:30;8.55;;;1.73;;
69305;SDS011;56427;51.580;4.656;2022-11-06T11:00:59;3.80;;;1.52;;
69305;SDS011;56427;51.580;4.656;2022-11-06T11:03:30;8.07;;;1.88;;
69305;SDS011;56427;51.580;4.656;2022-11-06T11:05:58;6.40;;;1.90;;
69305;SDS011;56427;51.580;4.656;2022-11-06T11:10:52;6.93;;;1.95;;
69305;SDS011;56427;51.580;4.656;2022-11-06T11:13:25;6.22;;;1.80;;
69305;SDS011;56427;51.580;4.656;2022-11-06T11:15:50;9.33;;;2.30;;
69305;SDS011;56427;51.580;4.656;2022-11-06T11:18:23;5.30;;;2.50;;
69305;SDS011;56427;51.580;4.656;2022-11-06T11:26:36;7.30;;;2.03;;
69305;SDS011;56427;51.580;4.656;2022-11-06T11:29:16;12.30;;;1.90;;
69305;SDS011;56427;51.580;4.656;2022-11-06T11:31:49;7.50;;;1.80;;
69305;SDS011;56427;51.580;4.656;2022-11-06T11:34:17;5.75;;;2.05;;
69305;SDS011;56427;51.580;4.656;2022-11-06T11:36:51;9.02;;;2.28;;
69305;SDS011;56427;51.580;4.656;2022-11-06T11:39:24;10.13;;;2.30;;
69305;SDS011;56427;51.580;4.656;2022-11-06T11:42:42;8.75;;;2.00;;
69305;SDS011;56427;51.580;4.656;2022-11-06T11:45:09;7.72;;;2.05;;
69305;SDS011;56427;51.580;4.656;2022-11-06T11:47:37;8.90;;;2.40;;
69305;SDS011;56427;51.580;4.656;2022-11-06T11:50:49;8.90;;;2.33;;
69305;SDS011;56427;51.580;4.656;2022-11-06T11:53:11;7.03;;;2.30;;
69305;SDS011;56427;51.580;4.656;2022-11-06T11:55:43;8.75;;;2.60;;
69305;SDS011;56427;51.580;4.656;2022-11-06T11:58:25;5.88;;;2.13;;
69305;SDS011;56427;51.580;4.656;2022-11-06T12:00:53;5.93;;;2.72;;
69305;SDS011;56427;51.580;4.656;2022-11-06T12:03:22;13.55;;;2.42;;
69305;SDS011;56427;51.580;4.656;2022-11-06T12:05:53;12.70;;;2.93;;
69305;SDS011;56427;51.580;4.656;2022-11-06T12:08:29;8.27;;;2.03;;
69305;SDS011;56427;51.580;4.656;2022-11-06T12:10:59;6.87;;;2.27;;
69305;SDS011;56427;51.580;4.656;2022-11-06T12:13:27;8.70;;;2.30;;
69305;SDS011;56427;51.580;4.656;2022-11-06T12:16:02;7.23;;;1.90;;
69305;SDS011;56427;51.580;4.656;2022-11-06T12:18:34;7.93;;;1.92;;
69305;SDS011;56427;51.580;4.656;2022-11-06T12:21:04;8.20;;;2.05;;
69305;SDS011;56427;51.580;4.656;2022-11-06T12:26:21;8.05;;;2.20;;
69305;SDS011;56427;51.580;4.656;2022-11-06T12:28:48;8.70;;;2.40;;
69305;SDS011;56427;51.580;4.656;2022-11-06T12:37:31;6.88;;;2.17;;
69305;SDS011;56427;51.580;4.656;2022-11-06T12:40:11;11.60;;;2.53;;
69305;SDS011;56427;51.580;4.656;2022-11-06T12:42:44;7.57;;;2.20;;
69305;SDS011;56427;51.580;4.656;2022-11-06T12:45:19;8.05;;;2.15;;
69305;SDS011;56427;51.580;4.656;2022-11-06T12:47:53;8.35;;;2.05;;
69305;SDS011;56427;51.580;4.656;2022-11-06T12:53:34;7.50;;;2.35;;
69305;SDS011;56427;51.580;4.656;2022-11-06T12:56:20;9.50;;;2.50;;
69305;SDS011;56427;51.580;4.656;2022-11-06T12:59:00;11.10;;;2.25;;
69305;SDS011;56427;51.580;4.656;2022-11-06T13:01:34;7.63;;;1.98;;
69305;SDS011;56427;51.580;4.656;2022-11-06T13:04:13;13.57;;;3.08;;
69305;SDS011;56427;51.580;4.656;2022-11-06T13:09:43;11.10;;;2.30;;
69305;SDS011;56427;51.580;4.656;2022-11-06T13:12:21;11.07;;;2.20;;
69305;SDS011;56427;51.580;4.656;2022-11-06T13:20:19;9.40;;;2.28;;
69305;SDS011;56427;51.580;4.656;2022-11-06T13:25:21;8.80;;;2.83;;
69305;SDS011;56427;51.580;4.656;2022-11-06T13:31:04;8.23;;;2.97;;
69305;SDS011;56427;51.580;4.656;2022-11-06T13:33:37;6.83;;;2.33;;
69305;SDS011;56427;51.580;4.656;2022-11-06T13:36:07;9.07;;;2.47;;
69305;SDS011;56427;51.580;4.656;2022-11-06T13:38:34;10.45;;;2.53;;
69305;SDS011;56427;51.580;4.656;2022-11-06T13:41:35;9.68;;;2.20;;
69305;SDS011;56427;51.580;4.656;2022-11-06T13:44:02;12.55;;;2.45;;
69305;SDS011;56427;51.580;4.656;2022-11-06T13:46:41;9.83;;;2.70;;
69305;SDS011;56427;51.580;4.656;2022-11-06T13:55:06;8.75;;;2.60;;
69305;SDS011;56427;51.580;4.656;2022-11-06T14:06:15;10.38;;;2.80;;
69305;SDS011;56427;51.580;4.656;2022-11-06T14:08:52;11.27;;;2.97;;
69305;SDS011;56427;51.580;4.656;2022-11-06T14:12:21;8.48;;;3.08;;
69305;SDS011;56427;51.580;4.656;2022-11-06T14:16:44;9.07;;;2.67;;
69305;SDS011;56427;51.580;4.656;2022-11-06T14:19:30;10.13;;;3.10;;
69305;SDS011;56427;51.580;4.656;2022-11-06T14:24:35;7.90;;;3.15;;
69305;SDS011;56427;51.580;4.656;2022-11-06T14:27:04;13.50;;;3.67;;
69305;SDS011;56427;51.580;4.656;2022-11-06T14:32:10;10.80;;;3.33;;
69305;SDS011;56427;51.580;4.656;2022-11-06T14:37:54;10.00;;;3.20;;
69305;SDS011;56427;51.580;4.656;2022-11-06T14:40:34;8.75;;;2.70;;
69305;SDS011;56427;51.580;4.656;2022-11-06T14:43:10;7.70;;;3.63;;
69305;SDS011;56427;51.580;4.656;2022-11-06T14:46:17;7.90;;;2.55;;
69305;SDS011;56427;51.580;4.656;2022-11-06T14:48:44;9.03;;;3.20;;
69305;SDS011;56427;51.580;4.656;2022-11-06T14:51:29;15.80;;;3.67;;
69305;SDS011;56427;51.580;4.656;2022-11-06T14:53:55;9.20;;;3.73;;
69305;SDS011;56427;51.580;4.656;2022-11-06T14:56:24;9.95;;;4.00;;
69305;SDS011;56427;51.580;4.656;2022-11-06T14:58:53;13.60;;;3.97;;
69305;SDS011;56427;51.580;4.656;2022-11-06T15:02:03;12.88;;;3.00;;
69305;SDS011;56427;51.580;4.656;2022-11-06T15:04:41;7.47;;;2.95;;
69305;SDS011;56427;51.580;4.656;2022-11-06T15:07:24;5.80;;;2.80;;
69305;SDS011;56427;51.580;4.656;2022-11-06T15:10:01;10.07;;;3.85;;
69305;SDS011;56427;51.580;4.656;2022-11-06T15:15:30;6.47;;;2.75;;
69305;SDS011;56427;51.580;4.656;2022-11-06T15:17:58;7.93;;;3.17;;
69305;SDS011;56427;51.580;4.656;2022-11-06T15:20:26;9.38;;;3.15;;
69305;SDS011;56427;51.580;4.656;2022-11-06T15:23:00;6.90;;;2.75;;
69305;SDS011;56427;51.580;4.656;2022-11-06T15:25:39;6.97;;;3.63;;
69305;SDS011;56427;51.580;4.656;2022-11-06T15:28:12;11.98;;;3.58;;
69305;SDS011;56427;51.580;4.656;2022-11-06T15:30:45;12.10;;;3.20;;
69305;SDS011;56427;51.580;4.656;2022-11-06T15:33:20;6.55;;;3.30;;
69305;SDS011;56427;51.580;4.656;2022-11-06T15:35:50;7.35;;;2.70;;
69305;SDS011;56427;51.580;4.656;2022-11-06T15:38:18;6.65;;;2.67;;
69305;SDS011;56427;51.580;4.656;2022-11-06T15:40:47;5.93;;;2.65;;
69305;SDS011;56427;51.580;4.656;2022-11-06T15:43:31;8.43;;;3.87;;
69305;SDS011;56427;51.580;4.656;2022-11-06T15:46:03;8.98;;;3.55;;
69305;SDS011;56427;51.580;4.656;2022-11-06T15:48:41;8.90;;;3.58;;
69305;SDS011;56427;51.580;4.656;2022-11-06T15:51:19;6.30;;;3.00;;
69305;SDS011;56427;51.580;4.656;2022-11-06T15:53:46;8.45;;;2.90;;
69305;SDS011;56427;51.580;4.656;2022-11-06T15:56:11;8.23;;;3.33;;
69305;SDS011;56427;51.580;4.656;2022-11-06T15:58:39;8.02;;;3.63;;
69305;SDS011;56427;51.580;4.656;2022-11-06T16:01:05;9.93;;;3.50;;
69305;SDS011;56427;51.580;4.656;2022-11-06T16:03:32;9.00;;;3.92;;
69305;SDS011;56427;51.580;4.656;2022-11-06T16:06:08;5.63;;;3.33;;
69305;SDS011;56427;51.580;4.656;2022-11-06T16:08:34;6.93;;;3.53;;
69305;SDS011;56427;51.580;4.656;2022-11-06T16:11:01;9.10;;;3.13;;
69305;SDS011;56427;51.580;4.656;2022-11-06T16:13:27;13.15;;;4.65;;
69305;SDS011;56427;51.580;4.656;2022-11-06T16:15:54;8.00;;;4.22;;
69305;SDS011;56427;51.580;4.656;2022-11-06T16:24:00;9.10;;;3.67;;
69305;SDS011;56427;51.580;4.656;2022-11-06T16:26:35;13.23;;;4.68;;
69305;SDS011;56427;51.580;4.656;2022-11-06T16:29:07;8.82;;;4.22;;
69305;SDS011;56427;51.580;4.656;2022-11-06T16:31:34;5.68;;;3.17;;
69305;SDS011;56427;51.580;4.656;2022-11-06T16:34:02;7.22;;;3.15;;
69305;SDS011;56427;51.580;4.656;2022-11-06T16:36:29;6.10;;;3.08;;
69305;SDS011;56427;51.580;4.656;2022-11-06T16:44:43;11.77;;;3.88;;
69305;SDS011;56427;51.580;4.656;2022-11-06T16:49:35;7.90;;;4.07;;
69305;SDS011;56427;51.580;4.656;2022-11-06T16:52:47;10.40;;;4.88;;
69305;SDS011;56427;51.580;4.656;2022-11-06T16:55:05;11.45;;;4.15;;
69305;SDS011;56427;51.580;4.656;2022-11-06T16:57:51;10.52;;;4.20;;
69305;SDS011;56427;51.580;4.656;2022-11-06T17:00:22;7.40;;;3.40;;
69305;SDS011;56427;51.580;4.656;2022-11-06T17:02:51;20.25;;;12.38;;
69305;SDS011;56427;51.580;4.656;2022-11-06T17:05:20;7.38;;;3.75;;
69305;SDS011;56427;51.580;4.656;2022-11-06T17:07:47;8.27;;;4.10;;
69305;SDS011;56427;51.580;4.656;2022-11-06T17:10:22;8.35;;;4.00;;
69305;SDS011;56427;51.580;4.656;2022-11-06T17:13:33;9.90;;;3.60;;
69305;SDS011;56427;51.580;4.656;2022-11-06T17:16:01;6.53;;;3.40;;
69305;SDS011;56427;51.580;4.656;2022-11-06T17:18:31;8.35;;;3.67;;